Time;durP1;ratioP1;P1;durP2;ratioP2;P2;SDS_P1;SDS_P2;PMS_P1;PMS_P2;Temp;Humidity;BMP_temperature;BMP_pressure;BME280_temperature;BME280_humidity;BME280_pressure;Samples;Min_cycle;Max_cycle;Signal;HPM_P1;HPM_P2
2022/09/08 00:00:43;;;;;;;7.03;6.50;;;;;;;;;;5070982;28;20460;-74
2022/09/08 00:03:10;;;;;;;6.77;6.07;;;;;;;;;;5071916;28;20424;-75
2022/09/08 00:05:46;;;;;;;8.30;5.60;;;;;;;;;;5070301;28;20440;-73
2022/09/08 00:08:12;;;;;;;8.53;6.43;;;;;;;;;;5070403;28;20463;-74
2022/09/08 00:10:40;;;;;;;10.67;5.50;;;;;;;;;;5070111;28;20460;-74
2022/09/08 00:13:07;;;;;;;9.13;6.13;;;;;;;;;;5054123;28;20432;-75
2022/09/08 00:15:37;;;;;;;7.60;5.70;;;;;;;;;;5086927;28;20497;-73
2022/09/08 00:18:04;;;;;;;8.27;6.10;;;;;;;;;;5070194;28;20489;-75
2022/09/08 00:20:31;;;;;;;18.07;6.70;;;;;;;;;;5086864;28;20828;-75
2022/09/08 00:22:58;;;;;;;7.60;6.90;;;;;;;;;;5053830;28;20432;-74
2022/09/08 00:25:24;;;;;;;8.57;6.27;;;;;;;;;;5070208;28;20441;-75
2022/09/08 00:27:51;;;;;;;12.87;6.80;;;;;;;;;;5071437;28;20854;-74
2022/09/08 00:30:17;;;;;;;7.27;6.67;;;;;;;;;;5070136;28;20543;-74
2022/09/08 00:32:44;;;;;;;9.63;6.87;;;;;;;;;;5069892;28;20486;-74
2022/09/08 00:35:14;;;;;;;12.03;6.67;;;;;;;;;;5056755;28;20499;-73
2022/09/08 00:37:47;;;;;;;8.27;5.80;;;;;;;;;;5070234;28;20425;-74
2022/09/08 00:40:14;;;;;;;8.20;6.50;;;;;;;;;;5069956;28;20518;-73
2022/09/08 00:42:41;;;;;;;8.27;6.40;;;;;;;;;;5070316;28;20440;-76
2022/09/08 00:45:09;;;;;;;11.10;7.27;;;;;;;;;;5070358;28;20524;-73
2022/09/08 00:47:38;;;;;;;6.93;6.33;;;;;;;;;;5070021;28;20461;-74
2022/09/08 00:50:08;;;;;;;8.07;7.30;;;;;;;;;;5088216;28;20463;-74
2022/09/08 00:52:43;;;;;;;9.30;7.40;;;;;;;;;;5090206;28;20452;-74
2022/09/08 00:55:10;;;;;;;7.90;7.13;;;;;;;;;;5066611;28;20469;-74
2022/09/08 00:57:36;;;;;;;8.67;7.20;;;;;;;;;;5076802;28;20831;-74
2022/09/08 01:00:04;;;;;;;8.87;8.00;;;;;;;;;;5089865;28;20492;-74
2022/09/08 01:02:31;;;;;;;11.07;7.83;;;;;;;;;;5091297;28;20427;-74
2022/09/08 01:05:05;;;;;;;8.50;7.60;;;;;;;;;;5057532;28;20428;-76
2022/09/08 01:13:25;;;;;;;9.30;7.40;;;;;;;;;;5073840;28;20435;-73
2022/09/08 01:15:52;;;;;;;9.80;8.43;;;;;;;;;;5090315;28;20956;-73
2022/09/08 01:18:19;;;;;;;9.63;8.67;;;;;;;;;;5075107;28;20404;-76
2022/09/08 01:20:59;;;;;;;9.40;8.43;;;;;;;;;;5073478;28;20492;-74
2022/09/08 01:23:38;;;;;;;11.63;7.23;;;;;;;;;;5073523;28;21015;-75
2022/09/08 01:26:29;;;;;;;9.17;8.37;;;;;;;;;;5090437;28;21027;-74
2022/09/08 01:29:00;;;;;;;9.33;7.67;;;;;;;;;;5073424;28;20536;-76
2022/09/08 01:31:28;;;;;;;9.17;8.30;;;;;;;;;;5073308;28;20463;-74
2022/09/08 01:33:54;;;;;;;9.10;8.20;;;;;;;;;;5087017;28;20443;-76
2022/09/08 01:36:21;;;;;;;11.27;6.50;;;;;;;;;;5086674;28;20430;-74
2022/09/08 01:38:47;;;;;;;8.23;6.87;;;;;;;;;;5074739;28;20498;-76
2022/09/08 01:41:14;;;;;;;8.87;7.47;;;;;;;;;;5072974;28;20463;-75
2022/09/08 01:43:41;;;;;;;5.87;5.47;;;;;;;;;;5074322;28;20425;-75
2022/09/08 01:46:08;;;;;;;7.60;6.90;;;;;;;;;;5076869;28;20463;-74
2022/09/08 01:48:35;;;;;;;8.17;5.77;;;;;;;;;;5069843;28;20437;-75
2022/09/08 01:51:03;;;;;;;6.07;5.03;;;;;;;;;;5074139;28;20464;-75
2022/09/08 01:53:30;;;;;;;8.23;5.10;;;;;;;;;;5072373;28;20523;-74
2022/09/08 01:55:57;;;;;;;6.20;5.10;;;;;;;;;;5074058;28;20424;-75
2022/09/08 01:58:23;;;;;;;6.73;5.70;;;;;;;;;;5076021;28;20424;-75
2022/09/08 02:00:50;;;;;;;6.43;5.70;;;;;;;;;;5059285;28;21023;-75
2022/09/08 02:03:16;;;;;;;8.03;5.73;;;;;;;;;;5075945;28;20444;-74
2022/09/08 02:05:44;;;;;;;7.87;6.40;;;;;;;;;;5059246;28;20429;-74
2022/09/08 02:08:11;;;;;;;5.23;4.50;;;;;;;;;;5059562;28;21041;-75
2022/09/08 02:10:38;;;;;;;5.53;5.07;;;;;;;;;;5087658;28;20918;-74
2022/09/08 02:13:05;;;;;;;7.17;6.23;;;;;;;;;;5085295;28;20436;-74
2022/09/08 02:15:37;;;;;;;6.40;5.83;;;;;;;;;;5073757;28;20869;-74
2022/09/08 02:18:04;;;;;;;8.80;6.60;;;;;;;;;;5072488;28;20515;-74
2022/09/08 02:20:32;;;;;;;9.67;6.73;;;;;;;;;;5072247;28;20473;-76
2022/09/08 02:22:59;;;;;;;8.73;7.27;;;;;;;;;;5073709;28;20460;-76
2022/09/08 02:25:25;;;;;;;8.43;6.83;;;;;;;;;;5072218;28;20436;-75
2022/09/08 02:27:52;;;;;;;7.30;6.70;;;;;;;;;;5055678;28;20440;-74
2022/09/08 02:30:20;;;;;;;6.73;6.23;;;;;;;;;;5058785;28;20493;-74
2022/09/08 02:32:46;;;;;;;6.20;5.60;;;;;;;;;;5079762;28;20489;-77
2022/09/08 02:35:13;;;;;;;7.70;5.63;;;;;;;;;;5067917;28;20990;-77
2022/09/08 02:37:39;;;;;;;7.33;6.70;;;;;;;;;;5081549;28;20880;-77
2022/09/08 02:40:06;;;;;;;7.47;5.87;;;;;;;;;;5089646;28;20543;-75
2022/09/08 02:42:33;;;;;;;7.33;6.43;;;;;;;;;;5071809;28;20905;-75
2022/09/08 02:44:59;;;;;;;6.03;5.50;;;;;;;;;;5058624;28;20461;-75
2022/09/08 02:47:26;;;;;;;9.37;7.03;;;;;;;;;;5083231;28;20459;-75
2022/09/08 02:49:52;;;;;;;5.80;5.30;;;;;;;;;;5088897;28;20464;-75
2022/09/08 02:52:19;;;;;;;8.40;6.53;;;;;;;;;;5081611;28;20460;-76
2022/09/08 02:54:46;;;;;;;8.33;7.40;;;;;;;;;;5061371;28;20432;-75
2022/09/08 02:57:12;;;;;;;10.33;6.70;;;;;;;;;;5091917;28;20477;-76
2022/09/08 02:59:39;;;;;;;7.77;7.00;;;;;;;;;;5088371;28;20437;-76
2022/09/08 03:02:06;;;;;;;7.60;6.90;;;;;;;;;;5081754;28;20427;-77
2022/09/08 03:04:32;;;;;;;9.10;6.60;;;;;;;;;;5075256;28;20868;-77
2022/09/08 03:06:59;;;;;;;9.77;6.30;;;;;;;;;;5075032;28;20481;-75
2022/09/08 03:09:25;;;;;;;6.87;6.00;;;;;;;;;;5087957;28;20509;-76
2022/09/08 03:11:52;;;;;;;6.73;6.17;;;;;;;;;;5071298;28;20464;-75
2022/09/08 03:14:18;;;;;;;7.73;6.17;;;;;;;;;;5075202;28;20814;-77
2022/09/08 03:16:46;;;;;;;6.60;6.07;;;;;;;;;;5080727;28;20505;-75
2022/09/08 03:19:12;;;;;;;6.77;6.23;;;;;;;;;;5072783;28;20947;-75
2022/09/08 03:21:39;;;;;;;6.57;5.80;;;;;;;;;;5071210;28;20448;-75
2022/09/08 03:24:06;;;;;;;6.60;6.00;;;;;;;;;;5089156;28;20510;-76
2022/09/08 03:26:32;;;;;;;5.77;5.27;;;;;;;;;;5090972;28;20435;-75
2022/09/08 03:28:59;;;;;;;7.10;6.30;;;;;;;;;;5091254;28;20518;-75
2022/09/08 03:31:25;;;;;;;7.73;6.30;;;;;;;;;;5091061;28;20463;-75
2022/09/08 03:33:53;;;;;;;6.93;6.33;;;;;;;;;;5092437;28;20424;-75
2022/09/08 03:36:20;;;;;;;6.20;5.60;;;;;;;;;;5092409;28;20437;-74
2022/09/08 03:38:47;;;;;;;6.63;5.57;;;;;;;;;;5074279;28;20475;-74
2022/09/08 03:41:15;;;;;;;8.17;4.83;;;;;;;;;;5091042;28;20935;-75
2022/09/08 03:43:43;;;;;;;6.33;5.47;;;;;;;;;;5074082;28;20463;-75
2022/09/08 03:46:10;;;;;;;8.00;5.80;;;;;;;;;;5061355;28;20427;-75
2022/09/08 03:48:37;;;;;;;6.50;5.90;;;;;;;;;;5070681;28;20436;-75
2022/09/08 03:51:13;;;;;;;8.77;5.03;;;;;;;;;;5066809;28;20892;-75
2022/09/08 03:53:39;;;;;;;5.97;5.37;;;;;;;;;;5058003;28;20540;-74
2022/09/08 03:56:08;;;;;;;5.40;4.90;;;;;;;;;;5070437;28;20424;-75
2022/09/08 03:58:35;;;;;;;8.23;6.57;;;;;;;;;;5087350;28;20942;-76
2022/09/08 04:01:06;;;;;;;6.30;5.47;;;;;;;;;;5087224;28;20878;-75
2022/09/08 04:03:32;;;;;;;12.43;6.37;;;;;;;;;;5071655;28;20435;-75
2022/09/08 04:05:59;;;;;;;7.17;5.60;;;;;;;;;;5070322;28;20479;-76
2022/09/08 04:08:26;;;;;;;7.70;5.70;;;;;;;;;;5087146;28;20531;-75
2022/09/08 04:10:52;;;;;;;8.30;5.17;;;;;;;;;;5070217;28;20980;-77
2022/09/08 04:13:19;;;;;;;4.60;4.07;;;;;;;;;;5087054;28;20460;-75
2022/09/08 04:15:45;;;;;;;5.00;4.37;;;;;;;;;;5073069;28;20435;-75
2022/09/08 04:18:12;;;;;;;9.83;6.20;;;;;;;;;;5094279;28;20935;-75
2022/09/08 04:20:39;;;;;;;5.57;5.07;;;;;;;;;;5090209;28;20455;-76
2022/09/08 04:23:06;;;;;;;5.63;5.17;;;;;;;;;;5091726;28;20415;-76
2022/09/08 04:25:32;;;;;;;7.73;4.43;;;;;;;;;;5090287;28;20431;-75
2022/09/08 04:27:59;;;;;;;4.93;4.53;;;;;;;;;;5073490;28;20432;-76
2022/09/08 04:30:26;;;;;;;8.90;4.20;;;;;;;;;;5074542;28;20492;-76
2022/09/08 04:32:52;;;;;;;8.23;4.33;;;;;;;;;;5069867;28;20460;-75
2022/09/08 04:35:19;;;;;;;11.10;5.00;;;;;;;;;;5085497;28;20428;-75
2022/09/08 04:37:45;;;;;;;5.87;5.00;;;;;;;;;;5063477;28;20948;-76
2022/09/08 04:40:13;;;;;;;6.10;4.97;;;;;;;;;;5056395;28;20544;-75
2022/09/08 04:42:39;;;;;;;5.80;5.30;;;;;;;;;;5069915;28;20432;-75
2022/09/08 04:45:06;;;;;;;6.13;5.73;;;;;;;;;;5070021;28;20519;-75
2022/09/08 04:47:32;;;;;;;6.57;5.97;;;;;;;;;;5069782;28;20428;-76
2022/09/08 04:49:59;;;;;;;6.60;6.00;;;;;;;;;;5071052;28;20448;-75
2022/09/08 04:52:25;;;;;;;7.00;6.30;;;;;;;;;;5069701;28;20463;-76
2022/09/08 04:54:56;;;;;;;7.53;6.47;;;;;;;;;;5086040;28;20452;-75
2022/09/08 04:57:23;;;;;;;6.80;5.93;;;;;;;;;;5069575;28;21267;-75
2022/09/08 04:59:49;;;;;;;6.60;6.00;;;;;;;;;;5086354;28;20835;-75
2022/09/08 05:02:16;;;;;;;6.13;5.53;;;;;;;;;;5071075;28;20431;-76
2022/09/08 05:04:42;;;;;;;6.80;5.90;;;;;;;;;;5071058;28;20805;-76
2022/09/08 05:07:09;;;;;;;7.07;6.10;;;;;;;;;;5057895;28;20448;-75
2022/09/08 05:09:35;;;;;;;7.80;6.40;;;;;;;;;;5073877;28;20958;-75
2022/09/08 05:12:02;;;;;;;7.50;6.90;;;;;;;;;;5078629;28;20460;-75
2022/09/08 05:14:28;;;;;;;6.93;6.33;;;;;;;;;;5070870;28;20431;-75
2022/09/08 05:16:55;;;;;;;10.53;6.70;;;;;;;;;;5069590;28;20432;-75
2022/09/08 05:19:21;;;;;;;6.23;5.63;;;;;;;;;;5049543;28;20442;-75
2022/09/08 05:21:48;;;;;;;6.77;5.53;;;;;;;;;;5062908;28;20452;-75
2022/09/08 05:24:14;;;;;;;9.60;6.90;;;;;;;;;;5069628;28;20427;-76
2022/09/08 05:26:41;;;;;;;7.63;7.00;;;;;;;;;;5086406;28;20413;-75
2022/09/08 05:29:07;;;;;;;6.60;6.00;;;;;;;;;;5069758;28;20940;-75
2022/09/08 05:31:34;;;;;;;7.90;6.57;;;;;;;;;;5069605;28;20459;-74
2022/09/08 05:34:01;;;;;;;7.00;6.30;;;;;;;;;;5069397;28;20427;-76
2022/09/08 05:36:30;;;;;;;6.17;5.57;;;;;;;;;;5070650;28;20428;-75
2022/09/08 05:38:56;;;;;;;8.83;7.67;;;;;;;;;;5072613;28;20416;-75
2022/09/08 05:41:23;;;;;;;8.53;7.57;;;;;;;;;;5069144;28;20452;-75
2022/09/08 05:43:50;;;;;;;8.87;8.00;;;;;;;;;;5085947;28;20440;-76
2022/09/08 05:46:17;;;;;;;9.13;7.90;;;;;;;;;;5052568;28;20532;-76
2022/09/08 05:48:44;;;;;;;8.27;7.57;;;;;;;;;;5087965;28;20467;-76
2022/09/08 05:51:12;;;;;;;7.97;7.27;;;;;;;;;;5053471;28;20503;-75
2022/09/08 05:53:38;;;;;;;9.13;8.10;;;;;;;;;;5082201;28;20475;-76
2022/09/08 05:56:06;;;;;;;17.20;15.90;;;;;;;;;;5067319;28;20439;-75
2022/09/08 05:58:33;;;;;;;17.60;16.30;;;;;;;;;;5065074;28;20435;-75
2022/09/08 06:01:01;;;;;;;13.47;12.23;;;;;;;;;;5067565;28;20535;-76
2022/09/08 06:03:28;;;;;;;8.80;8.00;;;;;;;;;;5081273;28;20425;-76
2022/09/08 06:05:55;;;;;;;7.47;6.77;;;;;;;;;;5083592;28;20470;-76
2022/09/08 06:08:22;;;;;;;7.83;6.87;;;;;;;;;;5093071;28;20954;-76
2022/09/08 06:10:52;;;;;;;8.50;6.47;;;;;;;;;;5092758;28;20458;-75
2022/09/08 06:13:21;;;;;;;6.90;6.23;;;;;;;;;;5092709;28;20455;-75
2022/09/08 06:15:48;;;;;;;6.40;5.40;;;;;;;;;;5092846;28;20461;-75
2022/09/08 06:18:18;;;;;;;6.57;5.93;;;;;;;;;;5092700;28;20935;-75
2022/09/08 06:20:45;;;;;;;6.87;6.27;;;;;;;;;;5092445;28;20460;-75
2022/09/08 06:23:12;;;;;;;6.37;5.87;;;;;;;;;;5092695;28;20919;-75
2022/09/08 06:25:42;;;;;;;6.90;6.40;;;;;;;;;;5092443;28;20806;-75
2022/09/08 06:28:27;;;;;;;7.20;6.67;;;;;;;;;;5094184;28;20431;-75
2022/09/08 06:30:54;;;;;;;6.70;6.10;;;;;;;;;;5059593;28;20460;-76
2022/09/08 06:33:28;;;;;;;6.23;5.53;;;;;;;;;;5072131;28;20537;-76
2022/09/08 06:35:57;;;;;;;6.33;5.83;;;;;;;;;;5073589;28;20417;-75
2022/09/08 06:38:39;;;;;;;5.83;5.27;;;;;;;;;;5073411;28;20420;-76
2022/09/08 06:41:12;;;;;;;5.23;4.77;;;;;;;;;;5055593;28;20476;-76
2022/09/08 06:43:46;;;;;;;6.97;4.70;;;;;;;;;;5051865;28;20612;-76
2022/09/08 06:46:18;;;;;;;5.87;5.23;;;;;;;;;;5072058;28;20789;-76
2022/09/08 06:48:45;;;;;;;5.20;4.20;;;;;;;;;;5073435;28;20421;-75
2022/09/08 06:51:31;;;;;;;5.00;4.50;;;;;;;;;;5075859;28;20459;-75
2022/09/08 06:54:03;;;;;;;9.07;3.83;;;;;;;;;;5077615;28;20815;-76
2022/09/08 06:56:49;;;;;;;4.17;3.87;;;;;;;;;;5072016;28;20922;-76
2022/09/08 06:59:54;;;;;;;7.97;4.77;;;;;;;;;;5072151;28;20424;-76
2022/09/08 07:02:41;;;;;;;3.17;2.97;;;;;;;;;;5084732;28;20436;-75
2022/09/08 07:05:16;;;;;;;4.30;3.93;;;;;;;;;;5092116;28;20885;-75
2022/09/08 07:07:55;;;;;;;4.70;3.70;;;;;;;;;;5092275;28;21036;-75
2022/09/08 07:10:26;;;;;;;4.13;3.73;;;;;;;;;;5091936;28;20500;-75
2022/09/08 07:13:09;;;;;;;4.00;3.70;;;;;;;;;;5091655;28;20466;-76
2022/09/08 07:15:48;;;;;;;6.30;3.70;;;;;;;;;;5091727;28;20416;-75
2022/09/08 07:18:24;;;;;;;3.73;3.33;;;;;;;;;;5091719;28;20431;-75
2022/09/08 07:20:58;;;;;;;4.73;4.33;;;;;;;;;;5074553;28;20466;-75
2022/09/08 07:23:27;;;;;;;4.23;3.83;;;;;;;;;;5091586;28;20912;-75
2022/09/08 07:26:02;;;;;;;4.53;4.13;;;;;;;;;;5091603;28;20505;-76
2022/09/08 07:28:31;;;;;;;4.03;3.73;;;;;;;;;;5091474;28;20445;-77
2022/09/08 07:31:02;;;;;;;4.00;3.60;;;;;;;;;;5074756;28;20691;-76
2022/09/08 07:33:34;;;;;;;5.10;4.70;;;;;;;;;;5090085;28;21022;-76
2022/09/08 07:36:04;;;;;;;4.27;3.77;;;;;;;;;;5079107;28;20410;-76
2022/09/08 07:38:45;;;;;;;5.57;3.70;;;;;;;;;;5083105;28;20446;-75
2022/09/08 07:41:15;;;;;;;4.00;3.63;;;;;;;;;;5074319;28;20510;-75
2022/09/08 07:43:42;;;;;;;6.27;4.13;;;;;;;;;;5092342;28;20849;-76
2022/09/08 07:46:31;;;;;;;7.00;3.60;;;;;;;;;;5078401;28;20479;-75
2022/09/08 07:48:58;;;;;;;4.53;4.13;;;;;;;;;;5070976;28;20854;-76
2022/09/08 07:51:27;;;;;;;3.60;3.30;;;;;;;;;;5070682;28;20460;-77
2022/09/08 07:54:03;;;;;;;3.70;3.40;;;;;;;;;;5053816;28;20831;-76
2022/09/08 07:56:47;;;;;;;5.17;3.73;;;;;;;;;;5070569;28;20428;-76
2022/09/08 07:59:39;;;;;;;4.77;3.20;;;;;;;;;;5072923;28;20412;-77
2022/09/08 08:02:12;;;;;;;6.20;2.90;;;;;;;;;;5061087;28;20430;-76
2022/09/08 08:04:59;;;;;;;4.10;3.70;;;;;;;;;;5057690;28;20996;-76
2022/09/08 08:07:44;;;;;;;4.73;3.77;;;;;;;;;;5070519;28;20450;-77
2022/09/08 08:10:37;;;;;;;4.73;3.30;;;;;;;;;;5058348;28;20441;-76
2022/09/08 08:13:38;;;;;;;4.27;3.10;;;;;;;;;;5060273;28;20448;-77
2022/09/08 08:16:31;;;;;;;3.40;2.90;;;;;;;;;;5059521;28;20407;-76
2022/09/08 08:19:00;;;;;;;3.30;2.60;;;;;;;;;;5071798;28;20481;-76
2022/09/08 08:21:43;;;;;;;3.50;2.10;;;;;;;;;;5079193;28;20985;-76
2022/09/08 08:24:16;;;;;;;1.93;1.83;;;;;;;;;;5072975;28;20421;-76
2022/09/08 08:27:02;;;;;;;2.10;1.80;;;;;;;;;;5050503;28;20466;-75
2022/09/08 08:29:38;;;;;;;2.27;1.77;;;;;;;;;;5050444;28;20847;-75
2022/09/08 08:32:23;;;;;;;2.27;1.90;;;;;;;;;;5070542;28;20427;-75
2022/09/08 08:35:23;;;;;;;1.97;1.80;;;;;;;;;;5090945;28;20419;-75
2022/09/08 08:37:51;;;;;;;2.13;2.03;;;;;;;;;;5091008;28;20434;-76
2022/09/08 08:40:29;;;;;;;2.47;1.60;;;;;;;;;;5074010;28;20482;-76
2022/09/08 08:42:56;;;;;;;2.20;2.00;;;;;;;;;;5074986;28;20527;-75
2022/09/08 08:45:23;;;;;;;1.73;1.63;;;;;;;;;;5092633;28;20431;-77
2022/09/08 08:48:05;;;;;;;2.60;1.30;;;;;;;;;;5090292;28;20549;-75
2022/09/08 08:50:35;;;;;;;1.30;1.20;;;;;;;;;;5091788;28;20546;-75
2022/09/08 08:53:01;;;;;;;1.30;1.20;;;;;;;;;;5077395;28;20464;-75
2022/09/08 08:55:34;;;;;;;1.30;1.13;;;;;;;;;;5090354;28;20438;-75
2022/09/08 08:58:04;;;;;;;2.00;1.20;;;;;;;;;;5090648;28;20902;-77
2022/09/08 09:01:07;;;;;;;1.47;1.13;;;;;;;;;;5092733;28;20434;-77
2022/09/08 09:03:49;;;;;;;1.40;1.30;;;;;;;;;;5091353;28;20747;-75
2022/09/08 09:06:38;;;;;;;1.23;1.10;;;;;;;;;;5090050;28;20542;-77
2022/09/08 09:09:23;;;;;;;1.40;1.30;;;;;;;;;;5059856;28;20464;-77
2022/09/08 09:11:55;;;;;;;1.20;1.10;;;;;;;;;;5053202;28;20494;-75
2022/09/08 09:14:25;;;;;;;4.17;1.63;;;;;;;;;;5070946;28;20487;-75
2022/09/08 09:17:24;;;;;;;1.20;1.10;;;;;;;;;;5054205;28;20424;-77
2022/09/08 09:20:01;;;;;;;1.30;1.20;;;;;;;;;;5027646;28;20484;-74
2022/09/08 09:22:43;;;;;;;1.40;1.30;;;;;;;;;;5056259;28;20854;-76
2022/09/08 09:25:20;;;;;;;1.53;1.20;;;;;;;;;;5070464;28;20439;-75
2022/09/08 09:28:01;;;;;;;1.60;1.50;;;;;;;;;;5087237;28;20420;-76
2022/09/08 09:30:42;;;;;;;1.00;0.90;;;;;;;;;;5075644;28;20436;-77
2022/09/08 09:33:27;;;;;;;1.40;1.30;;;;;;;;;;5077816;28;20522;-75
2022/09/08 09:36:23;;;;;;;1.90;1.50;;;;;;;;;;5107303;28;20418;-75
2022/09/08 09:39:00;;;;;;;1.40;1.23;;;;;;;;;;5099824;28;20428;-75
2022/09/08 09:41:38;;;;;;;1.50;1.40;;;;;;;;;;5097228;28;20459;-75
2022/09/08 09:44:31;;;;;;;1.10;1.00;;;;;;;;;;5082200;28;20415;-78
2022/09/08 09:47:13;;;;;;;1.40;1.00;;;;;;;;;;5059932;28;20923;-75
2022/09/08 09:50:03;;;;;;;4.07;1.40;;;;;;;;;;5090756;28;20476;-76
2022/09/08 09:52:45;;;;;;;3.43;1.37;;;;;;;;;;5058383;28;20442;-78
2022/09/08 09:55:35;;;;;;;1.33;1.20;;;;;;;;;;5061556;28;20432;-76
2022/09/08 09:58:18;;;;;;;1.90;1.23;;;;;;;;;;5022066;28;20439;-78
2022/09/08 10:00:49;;;;;;;1.47;1.33;;;;;;;;;;5072374;28;20450;-75
2022/09/08 10:03:33;;;;;;;2.00;1.00;;;;;;;;;;5078103;28;20439;-78
2022/09/08 10:06:03;;;;;;;1.63;1.13;;;;;;;;;;5077019;28;20409;-76
2022/09/08 10:08:47;;;;;;;1.30;1.20;;;;;;;;;;5088522;28;20850;-76
2022/09/08 10:11:14;;;;;;;1.17;1.07;;;;;;;;;;5077233;28;20464;-77
2022/09/08 10:13:49;;;;;;;1.30;1.20;;;;;;;;;;5063281;28;20456;-76
2022/09/08 10:16:28;;;;;;;1.20;1.10;;;;;;;;;;5066511;28;20435;-75
2022/09/08 10:19:18;;;;;;;5.47;1.27;;;;;;;;;;5092900;28;20435;-76
2022/09/08 10:21:44;;;;;;;2.37;1.40;;;;;;;;;;5077395;28;20454;-77
2022/09/08 10:24:31;;;;;;;1.73;1.40;;;;;;;;;;5093206;28;20443;-76
2022/09/08 10:27:09;;;;;;;2.33;2.23;;;;;;;;;;5076000;28;20443;-76
2022/09/08 10:29:54;;;;;;;1.30;1.10;;;;;;;;;;5083022;28;20432;-76
2022/09/08 10:32:34;;;;;;;1.80;1.30;;;;;;;;;;5055661;28;20432;-76
2022/09/08 10:35:09;;;;;;;2.03;1.10;;;;;;;;;;5072338;28;20452;-75
2022/09/08 10:37:39;;;;;;;1.10;1.00;;;;;;;;;;5064418;28;20442;-76
2022/09/08 10:40:24;;;;;;;1.57;1.47;;;;;;;;;;5091313;28;20506;-76
2022/09/08 10:43:13;;;;;;;1.10;1.00;;;;;;;;;;5073487;28;20798;-75
2022/09/08 10:45:52;;;;;;;1.33;1.23;;;;;;;;;;5072976;28;20434;-76
2022/09/08 10:48:28;;;;;;;1.57;1.20;;;;;;;;;;5086311;28;20422;-76
2022/09/08 10:51:02;;;;;;;1.67;1.20;;;;;;;;;;5080477;28;20467;-75
2022/09/08 10:53:47;;;;;;;1.47;1.30;;;;;;;;;;5067023;28;20456;-75
2022/09/08 10:56:27;;;;;;;1.60;1.30;;;;;;;;;;5070724;28;20854;-75
2022/09/08 10:58:59;;;;;;;1.47;1.37;;;;;;;;;;5077979;28;20429;-75
2022/09/08 11:01:34;;;;;;;2.10;2.00;;;;;;;;;;5070978;28;20535;-76
2022/09/08 11:04:20;;;;;;;1.57;1.47;;;;;;;;;;5072140;28;20841;-75
2022/09/08 11:06:47;;;;;;;1.77;1.40;;;;;;;;;;5052174;28;20524;-76
2022/09/08 11:09:16;;;;;;;2.20;1.60;;;;;;;;;;5069116;28;20455;-75
2022/09/08 11:12:06;;;;;;;1.40;1.30;;;;;;;;;;5065966;28;20474;-76
2022/09/08 11:14:33;;;;;;;1.80;1.70;;;;;;;;;;5049238;28;20456;-76
2022/09/08 11:17:11;;;;;;;3.17;1.57;;;;;;;;;;5071714;28;20775;-76
2022/09/08 11:19:40;;;;;;;1.30;1.20;;;;;;;;;;5055656;28;20449;-76
2022/09/08 11:22:13;;;;;;;3.03;1.47;;;;;;;;;;5103248;28;20423;-76
2022/09/08 11:24:39;;;;;;;1.40;1.30;;;;;;;;;;5083637;28;20434;-76
2022/09/08 11:27:18;;;;;;;3.10;1.40;;;;;;;;;;5072822;28;20439;-76
2022/09/08 11:29:54;;;;;;;1.43;1.33;;;;;;;;;;5082552;28;20899;-76
2022/09/08 11:32:29;;;;;;;2.60;1.67;;;;;;;;;;5073108;28;20462;-76
2022/09/08 11:35:14;;;;;;;1.93;1.30;;;;;;;;;;5058401;28;20464;-76
2022/09/08 11:37:41;;;;;;;1.40;1.30;;;;;;;;;;5051492;28;20429;-76
2022/09/08 11:40:25;;;;;;;1.80;1.30;;;;;;;;;;5066450;28;20465;-76
2022/09/08 11:42:51;;;;;;;1.70;1.60;;;;;;;;;;5083244;28;20431;-76
2022/09/08 11:45:28;;;;;;;1.93;1.70;;;;;;;;;;5072934;28;20975;-77
2022/09/08 11:48:14;;;;;;;1.80;1.70;;;;;;;;;;5088844;28;20432;-76
2022/09/08 11:50:56;;;;;;;2.70;1.50;;;;;;;;;;5091706;28;20449;-77
2022/09/08 11:53:49;;;;;;;1.30;1.20;;;;;;;;;;5084566;28;20486;-77
2022/09/08 11:56:38;;;;;;;1.53;1.43;;;;;;;;;;5080430;28;20436;-76
2022/09/08 11:59:23;;;;;;;2.47;1.17;;;;;;;;;;5097908;28;20522;-77
2022/09/08 12:02:09;;;;;;;3.20;1.60;;;;;;;;;;5091850;28;21053;-76
2022/09/08 12:04:55;;;;;;;1.40;1.20;;;;;;;;;;5087364;28;20437;-75
2022/09/08 12:08:04;;;;;;;1.23;1.13;;;;;;;;;;5088582;28;20437;-76
2022/09/08 12:10:37;;;;;;;2.17;1.60;;;;;;;;;;5086172;28;20474;-77
2022/09/08 12:13:03;;;;;;;1.20;1.10;;;;;;;;;;5075221;28;20432;-77
2022/09/08 12:15:56;;;;;;;1.93;1.50;;;;;;;;;;5071564;28;20456;-76
2022/09/08 12:18:41;;;;;;;1.20;1.10;;;;;;;;;;5022730;28;20429;-76
2022/09/08 12:21:26;;;;;;;1.17;1.07;;;;;;;;;;5060856;28;20448;-75
2022/09/08 12:23:52;;;;;;;1.20;1.10;;;;;;;;;;5077015;28;20441;-76
2022/09/08 12:26:23;;;;;;;2.47;2.13;;;;;;;;;;5091329;28;21140;-76
2022/09/08 12:29:13;;;;;;;1.93;1.83;;;;;;;;;;5075209;28;20751;-76
2022/09/08 12:31:46;;;;;;;2.47;2.27;;;;;;;;;;5058288;28;20458;-76
2022/09/08 12:34:19;;;;;;;1.43;1.30;;;;;;;;;;5034364;28;20461;-76
2022/09/08 12:36:50;;;;;;;1.20;1.10;;;;;;;;;;5054269;28;20418;-76
2022/09/08 12:39:23;;;;;;;1.13;1.03;;;;;;;;;;5090777;28;20400;-76
2022/09/08 12:41:59;;;;;;;1.33;1.20;;;;;;;;;;5087004;28;20440;-76
2022/09/08 12:44:39;;;;;;;1.33;1.10;;;;;;;;;;5070612;28;20436;-76
2022/09/08 12:47:17;;;;;;;1.50;1.40;;;;;;;;;;5077142;28;20447;-76
2022/09/08 12:49:59;;;;;;;1.73;1.63;;;;;;;;;;5076935;28;20435;-76
2022/09/08 12:52:29;;;;;;;1.70;1.60;;;;;;;;;;5081308;28;20506;-75
2022/09/08 12:55:01;;;;;;;1.30;1.20;;;;;;;;;;5056021;28;20452;-76
2022/09/08 12:57:46;;;;;;;1.20;1.10;;;;;;;;;;5069742;28;20481;-76
2022/09/08 13:00:15;;;;;;;1.70;1.60;;;;;;;;;;5065744;28;20455;-77
2022/09/08 13:03:00;;;;;;;1.30;1.20;;;;;;;;;;5090481;28;20412;-76
2022/09/08 13:05:27;;;;;;;1.67;1.20;;;;;;;;;;5090331;28;20469;-76
2022/09/08 13:08:00;;;;;;;1.93;1.10;;;;;;;;;;5060213;28;20860;-76
2022/09/08 13:10:30;;;;;;;1.20;1.10;;;;;;;;;;5078301;28;20535;-76
2022/09/08 13:13:09;;;;;;;1.10;1.00;;;;;;;;;;5069955;28;20432;-76
2022/09/08 13:15:50;;;;;;;3.13;1.07;;;;;;;;;;5054373;28;20456;-76
2022/09/08 13:18:23;;;;;;;1.10;1.00;;;;;;;;;;5090246;28;20525;-76
2022/09/08 13:20:59;;;;;;;1.23;1.13;;;;;;;;;;5086600;28;20964;-76
2022/09/08 13:23:25;;;;;;;1.10;1.00;;;;;;;;;;5082827;28;20986;-76
2022/09/08 13:25:55;;;;;;;1.50;1.40;;;;;;;;;;5060040;28;20434;-77
2022/09/08 13:28:40;;;;;;;1.63;1.53;;;;;;;;;;5077699;28;20441;-76
2022/09/08 13:31:12;;;;;;;1.77;1.10;;;;;;;;;;5055553;28;20449;-76
2022/09/08 13:33:55;;;;;;;1.00;0.90;;;;;;;;;;5055132;28;20429;-76
2022/09/08 13:36:45;;;;;;;0.90;0.90;;;;;;;;;;5080566;28;20435;-76
2022/09/08 13:39:23;;;;;;;2.13;1.00;;;;;;;;;;5074702;28;20928;-76
2022/09/08 13:42:15;;;;;;;2.23;1.00;;;;;;;;;;5083062;28;21011;-76
2022/09/08 13:44:43;;;;;;;1.10;1.00;;;;;;;;;;5069805;28;20508;-76
2022/09/08 13:47:23;;;;;;;1.40;1.10;;;;;;;;;;5069730;28;21029;-76
2022/09/08 13:50:04;;;;;;;1.57;1.10;;;;;;;;;;5070386;28;20519;-76
2022/09/08 13:52:44;;;;;;;1.13;1.00;;;;;;;;;;5050040;28;20845;-76
2022/09/08 13:55:28;;;;;;;2.93;1.07;;;;;;;;;;5057612;28;20458;-77
2022/09/08 13:57:58;;;;;;;2.03;1.10;;;;;;;;;;5070046;28;20429;-76
2022/09/08 14:00:24;;;;;;;1.57;0.73;;;;;;;;;;5079210;28;20954;-76
2022/09/08 14:02:54;;;;;;;1.17;0.90;;;;;;;;;;5057036;28;20441;-76
2022/09/08 14:05:25;;;;;;;0.97;0.87;;;;;;;;;;5070013;28;20436;-77
2022/09/08 14:07:55;;;;;;;1.43;1.33;;;;;;;;;;5069725;28;20790;-76
2022/09/08 14:10:34;;;;;;;4.63;1.00;;;;;;;;;;5067405;28;20473;-76
2022/09/08 14:13:08;;;;;;;1.80;1.10;;;;;;;;;;5077217;28;20439;-76
2022/09/08 14:15:41;;;;;;;2.63;1.07;;;;;;;;;;5062983;28;20460;-76
2022/09/08 14:18:13;;;;;;;1.20;0.97;;;;;;;;;;5081771;28;20950;-76
2022/09/08 14:20:54;;;;;;;0.80;0.80;;;;;;;;;;5076053;28;20473;-76
2022/09/08 14:23:34;;;;;;;0.80;0.70;;;;;;;;;;5074866;28;20409;-76
2022/09/08 14:26:19;;;;;;;1.27;1.17;;;;;;;;;;5079614;28;20546;-76
2022/09/08 14:28:52;;;;;;;1.23;0.80;;;;;;;;;;5077171;28;20483;-76
2022/09/08 14:31:18;;;;;;;1.00;0.90;;;;;;;;;;5084552;28;20454;-76
2022/09/08 14:33:54;;;;;;;1.00;0.83;;;;;;;;;;5076857;28;20519;-76
2022/09/08 14:36:30;;;;;;;0.90;0.80;;;;;;;;;;5084183;28;20417;-76
2022/09/08 14:39:08;;;;;;;1.30;0.90;;;;;;;;;;5059320;28;21115;-76
2022/09/08 14:41:57;;;;;;;0.97;0.90;;;;;;;;;;5072588;28;20448;-76
2022/09/08 14:44:36;;;;;;;0.90;0.80;;;;;;;;;;5066947;28;20943;-76
2022/09/08 14:47:10;;;;;;;1.90;1.00;;;;;;;;;;5086207;28;20424;-76
2022/09/08 14:49:55;;;;;;;2.70;1.10;;;;;;;;;;5058262;28;20444;-77
2022/09/08 14:52:39;;;;;;;1.47;0.97;;;;;;;;;;5079540;28;20456;-77
2022/09/08 14:55:25;;;;;;;1.20;0.90;;;;;;;;;;5072878;28;20842;-77
2022/09/08 14:58:11;;;;;;;1.10;1.00;;;;;;;;;;5087530;28;20439;-77
2022/09/08 15:00:39;;;;;;;2.70;1.27;;;;;;;;;;5081317;28;20452;-77
2022/09/08 15:03:15;;;;;;;2.70;2.40;;;;;;;;;;5085346;28;20516;-78
2022/09/08 15:05:43;;;;;;;2.27;1.40;;;;;;;;;;5053021;28;20409;-77
2022/09/08 15:08:28;;;;;;;1.50;0.87;;;;;;;;;;5072127;28;20428;-76
2022/09/08 15:11:09;;;;;;;3.20;1.10;;;;;;;;;;5088405;28;20451;-77
2022/09/08 15:13:37;;;;;;;1.23;1.10;;;;;;;;;;5081908;28;20440;-77
2022/09/08 15:16:18;;;;;;;1.10;1.00;;;;;;;;;;5072902;28;20479;-77
2022/09/08 15:18:53;;;;;;;1.30;1.10;;;;;;;;;;5090209;28;20459;-77
2022/09/08 15:21:22;;;;;;;1.10;1.00;;;;;;;;;;5083856;28;20497;-77
2022/09/08 15:23:51;;;;;;;3.40;1.37;;;;;;;;;;5069708;28;20438;-77
2022/09/08 15:26:40;;;;;;;2.83;2.23;;;;;;;;;;5089538;28;20502;-77